Terminal Aerodrome Forecast
Issued by NWS Milwaukee/Sullivan, WI

Home | Current Version | Previous Version | Text Only | Print | Product List | Glossary On
Versions: 1 2 3 4 5 6 7 8 9 10 11 12 13 14 15 16 17 18 19 20 21 22 23 24 25 26 27 28 29 30 31 32 33 34 35 36 37 38 39 40 41 42 43 44 45 46 47 48 49 50
537
FTUS43 KMKX 231509 AAB
TAFMSN
TAF AMD
KMSN 231509Z 2315/2412 34010KT P6SM OVC015
     FM231900 05009KT P6SM OVC035
     FM240000 07013G18KT 5SM -RA OVC030
     FM240200 06013G22KT 4SM -RASN BR OVC025
     FM240600 05016G26KT 2SM RA BR OVC008=

USA.gov is the U.S. government's official web portal to all federal, state and local government web resources and services.